sensor_id;sensor_type;location;lat;lon;timestamp;temperature;humidity
9849;DHT22;4963;51.444;6.528;2022-12-10T00:00:25;0.80;99.90
9849;DHT22;4963;51.444;6.528;2022-12-10T00:02:52;0.80;99.90
9849;DHT22;4963;51.444;6.528;2022-12-10T00:05:19;0.70;99.90
9849;DHT22;4963;51.444;6.528;2022-12-10T00:07:48;0.70;99.90
9849;DHT22;4963;51.444;6.528;2022-12-10T00:10:14;0.70;99.90
9849;DHT22;4963;51.444;6.528;2022-12-10T00:12:41;0.60;99.90
9849;DHT22;4963;51.444;6.528;2022-12-10T00:15:09;0.60;99.90
9849;DHT22;4963;51.444;6.528;2022-12-10T00:17:36;0.60;99.90
9849;DHT22;4963;51.444;6.528;2022-12-10T00:20:03;0.60;99.90
9849;DHT22;4963;51.444;6.528;2022-12-10T00:22:30;0.60;99.90
9849;DHT22;4963;51.444;6.528;2022-12-10T00:24:58;0.60;99.90
9849;DHT22;4963;51.444;6.528;2022-12-10T00:27:25;0.60;99.90
9849;DHT22;4963;51.444;6.528;2022-12-10T00:29:51;0.50;99.90
9849;DHT22;4963;51.444;6.528;2022-12-10T00:32:18;0.60;99.90
9849;DHT22;4963;51.444;6.528;2022-12-10T00:34:45;0.60;99.90
9849;DHT22;4963;51.444;6.528;2022-12-10T00:37:12;0.60;99.90
9849;DHT22;4963;51.444;6.528;2022-12-10T00:39:39;0.60;99.90
9849;DHT22;4963;51.444;6.528;2022-12-10T00:42:07;0.60;99.90
9849;DHT22;4963;51.444;6.528;2022-12-10T00:44:33;0.50;99.90
9849;DHT22;4963;51.444;6.528;2022-12-10T00:47:00;0.50;99.90
9849;DHT22;4963;51.444;6.528;2022-12-10T00:49:27;0.50;99.90
9849;DHT22;4963;51.444;6.528;2022-12-10T00:51:54;0.50;99.90
9849;DHT22;4963;51.444;6.528;2022-12-10T00:54:20;0.50;99.90
9849;DHT22;4963;51.444;6.528;2022-12-10T00:56:47;0.50;99.90
9849;DHT22;4963;51.444;6.528;2022-12-10T00:59:15;0.50;99.90
9849;DHT22;4963;51.444;6.528;2022-12-10T01:01:42;0.40;99.90
9849;DHT22;4963;51.444;6.528;2022-12-10T01:04:12;0.40;99.90
9849;DHT22;4963;51.444;6.528;2022-12-10T01:06:42;0.40;99.90
9849;DHT22;4963;51.444;6.528;2022-12-10T01:09:11;0.40;99.90
9849;DHT22;4963;51.444;6.528;2022-12-10T01:11:40;0.40;99.90
9849;DHT22;4963;51.444;6.528;2022-12-10T01:14:10;0.40;99.90
9849;DHT22;4963;51.444;6.528;2022-12-10T01:16:39;0.30;99.90
9849;DHT22;4963;51.444;6.528;2022-12-10T01:19:06;0.30;99.90
9849;DHT22;4963;51.444;6.528;2022-12-10T01:21:33;0.30;99.90
9849;DHT22;4963;51.444;6.528;2022-12-10T01:24:00;0.30;99.90
9849;DHT22;4963;51.444;6.528;2022-12-10T01:26:29;0.30;99.90
9849;DHT22;4963;51.444;6.528;2022-12-10T01:28:56;0.30;99.90
9849;DHT22;4963;51.444;6.528;2022-12-10T01:31:26;0.20;99.90
9849;DHT22;4963;51.444;6.528;2022-12-10T01:33:54;0.20;99.90
9849;DHT22;4963;51.444;6.528;2022-12-10T01:36:24;0.20;99.90
9849;DHT22;4963;51.444;6.528;2022-12-10T01:38:52;0.20;99.90
9849;DHT22;4963;51.444;6.528;2022-12-10T01:41:21;0.20;99.90
9849;DHT22;4963;51.444;6.528;2022-12-10T01:43:54;0.30;99.90
9849;DHT22;4963;51.444;6.528;2022-12-10T01:46:22;0.20;99.90
9849;DHT22;4963;51.444;6.528;2022-12-10T01:48:50;0.20;99.90
9849;DHT22;4963;51.444;6.528;2022-12-10T01:51:19;0.20;99.90
9849;DHT22;4963;51.444;6.528;2022-12-10T01:53:46;0.20;99.90
9849;DHT22;4963;51.444;6.528;2022-12-10T01:56:16;0.20;99.90
9849;DHT22;4963;51.444;6.528;2022-12-10T01:58:43;0.20;99.90
9849;DHT22;4963;51.444;6.528;2022-12-10T02:01:14;0.20;99.90
9849;DHT22;4963;51.444;6.528;2022-12-10T02:03:51;0.20;99.90
9849;DHT22;4963;51.444;6.528;2022-12-10T02:06:32;0.20;99.90
9849;DHT22;4963;51.444;6.528;2022-12-10T02:09:09;0.20;99.90
9849;DHT22;4963;51.444;6.528;2022-12-10T02:11:42;0.20;99.90
9849;DHT22;4963;51.444;6.528;2022-12-10T02:14:15;0.10;99.90
9849;DHT22;4963;51.444;6.528;2022-12-10T02:16:48;0.10;99.90
9849;DHT22;4963;51.444;6.528;2022-12-10T02:19:22;0.10;99.90
9849;DHT22;4963;51.444;6.528;2022-12-10T02:21:55;0.10;99.90
9849;DHT22;4963;51.444;6.528;2022-12-10T02:24:25;0.10;99.90
9849;DHT22;4963;51.444;6.528;2022-12-10T02:27:00;0.10;99.90
9849;DHT22;4963;51.444;6.528;2022-12-10T02:29:32;0.10;99.90
9849;DHT22;4963;51.444;6.528;2022-12-10T02:32:03;0.00;99.90
9849;DHT22;4963;51.444;6.528;2022-12-10T02:34:34;0.00;99.90
9849;DHT22;4963;51.444;6.528;2022-12-10T02:37:04;0.00;99.90
9849;DHT22;4963;51.444;6.528;2022-12-10T02:39:37;0.10;99.90
9849;DHT22;4963;51.444;6.528;2022-12-10T02:42:06;0.10;99.90
9849;DHT22;4963;51.444;6.528;2022-12-10T02:44:37;0.10;99.90
9849;DHT22;4963;51.444;6.528;2022-12-10T02:47:06;0.10;99.90
9849;DHT22;4963;51.444;6.528;2022-12-10T02:49:34;0.10;99.90
9849;DHT22;4963;51.444;6.528;2022-12-10T02:52:07;0.10;99.90
9849;DHT22;4963;51.444;6.528;2022-12-10T02:54:37;0.10;99.90
9849;DHT22;4963;51.444;6.528;2022-12-10T02:57:14;0.10;99.90
9849;DHT22;4963;51.444;6.528;2022-12-10T03:00:01;0.00;99.90
9849;DHT22;4963;51.444;6.528;2022-12-10T03:02:34;0.10;99.90
9849;DHT22;4963;51.444;6.528;2022-12-10T03:05:12;0.00;99.90
9849;DHT22;4963;51.444;6.528;2022-12-10T03:07:45;0.00;99.90
9849;DHT22;4963;51.444;6.528;2022-12-10T03:10:20;0.00;99.90
9849;DHT22;4963;51.444;6.528;2022-12-10T03:12:52;0.00;99.90
9849;DHT22;4963;51.444;6.528;2022-12-10T03:15:24;0.00;99.90
9849;DHT22;4963;51.444;6.528;2022-12-10T03:17:52;0.00;99.90
9849;DHT22;4963;51.444;6.528;2022-12-10T03:20:20;0.00;99.90
9849;DHT22;4963;51.444;6.528;2022-12-10T03:22:49;0.00;99.90
9849;DHT22;4963;51.444;6.528;2022-12-10T03:25:19;0.00;99.90
9849;DHT22;4963;51.444;6.528;2022-12-10T03:27:49;-0.10;99.90
9849;DHT22;4963;51.444;6.528;2022-12-10T03:30:17;-0.10;99.90
9849;DHT22;4963;51.444;6.528;2022-12-10T03:32:46;-0.10;99.90
9849;DHT22;4963;51.444;6.528;2022-12-10T03:35:14;-0.10;99.90
9849;DHT22;4963;51.444;6.528;2022-12-10T03:37:42;-0.10;99.90
9849;DHT22;4963;51.444;6.528;2022-12-10T03:40:10;0.00;99.90
9849;DHT22;4963;51.444;6.528;2022-12-10T03:42:38;0.00;99.90
9849;DHT22;4963;51.444;6.528;2022-12-10T03:45:05;-0.10;99.90
9849;DHT22;4963;51.444;6.528;2022-12-10T03:47:33;0.00;99.90
9849;DHT22;4963;51.444;6.528;2022-12-10T03:50:01;-0.10;99.90
9849;DHT22;4963;51.444;6.528;2022-12-10T03:52:28;-0.10;99.90
9849;DHT22;4963;51.444;6.528;2022-12-10T03:54:55;-0.20;99.90
9849;DHT22;4963;51.444;6.528;2022-12-10T03:57:22;-0.20;99.90
9849;DHT22;4963;51.444;6.528;2022-12-10T03:59:49;-0.20;99.90
9849;DHT22;4963;51.444;6.528;2022-12-10T04:02:15;-0.20;99.90
9849;DHT22;4963;51.444;6.528;2022-12-10T04:04:42;-0.20;99.90
9849;DHT22;4963;51.444;6.528;2022-12-10T04:07:10;-0.20;99.90
9849;DHT22;4963;51.444;6.528;2022-12-10T04:09:38;-0.20;99.90
9849;DHT22;4963;51.444;6.528;2022-12-10T04:12:05;-0.20;99.90
9849;DHT22;4963;51.444;6.528;2022-12-10T04:14:32;-0.10;99.90
9849;DHT22;4963;51.444;6.528;2022-12-10T04:17:16;-0.10;99.90
9849;DHT22;4963;51.444;6.528;2022-12-10T04:19:43;-0.10;99.90
9849;DHT22;4963;51.444;6.528;2022-12-10T04:22:11;-0.10;99.90
9849;DHT22;4963;51.444;6.528;2022-12-10T04:24:55;-0.10;99.90
9849;DHT22;4963;51.444;6.528;2022-12-10T04:27:48;-0.10;99.90
9849;DHT22;4963;51.444;6.528;2022-12-10T04:30:15;-0.10;99.90
9849;DHT22;4963;51.444;6.528;2022-12-10T04:32:41;-0.10;99.90
9849;DHT22;4963;51.444;6.528;2022-12-10T04:35:08;-0.10;99.90
9849;DHT22;4963;51.444;6.528;2022-12-10T04:37:37;-0.20;99.90
9849;DHT22;4963;51.444;6.528;2022-12-10T04:40:05;-0.20;99.90
9849;DHT22;4963;51.444;6.528;2022-12-10T04:42:32;-0.20;99.90
9849;DHT22;4963;51.444;6.528;2022-12-10T04:44:59;-0.20;99.90
9849;DHT22;4963;51.444;6.528;2022-12-10T04:47:25;-0.20;99.90
9849;DHT22;4963;51.444;6.528;2022-12-10T04:49:52;-0.20;99.90
9849;DHT22;4963;51.444;6.528;2022-12-10T04:52:19;-0.30;99.90
9849;DHT22;4963;51.444;6.528;2022-12-10T04:54:47;-0.30;99.90
9849;DHT22;4963;51.444;6.528;2022-12-10T04:57:14;-0.30;99.90
9849;DHT22;4963;51.444;6.528;2022-12-10T04:59:41;-0.40;99.90
9849;DHT22;4963;51.444;6.528;2022-12-10T05:02:08;-0.50;99.90
9849;DHT22;4963;51.444;6.528;2022-12-10T05:04:35;-0.50;99.90
9849;DHT22;4963;51.444;6.528;2022-12-10T05:07:02;-0.50;99.90
9849;DHT22;4963;51.444;6.528;2022-12-10T05:09:28;-0.50;99.90
9849;DHT22;4963;51.444;6.528;2022-12-10T05:11:57;-0.50;99.90
9849;DHT22;4963;51.444;6.528;2022-12-10T05:14:23;-0.50;99.90
9849;DHT22;4963;51.444;6.528;2022-12-10T05:16:50;-0.50;99.90
9849;DHT22;4963;51.444;6.528;2022-12-10T05:19:17;-0.50;99.90
9849;DHT22;4963;51.444;6.528;2022-12-10T05:21:47;-0.60;99.90
9849;DHT22;4963;51.444;6.528;2022-12-10T05:24:32;-0.60;99.90
9849;DHT22;4963;51.444;6.528;2022-12-10T05:27:00;-0.60;99.90
9849;DHT22;4963;51.444;6.528;2022-12-10T05:29:27;-0.60;99.90
9849;DHT22;4963;51.444;6.528;2022-12-10T05:31:54;-0.60;99.90
9849;DHT22;4963;51.444;6.528;2022-12-10T05:34:21;-0.60;99.90
9849;DHT22;4963;51.444;6.528;2022-12-10T05:36:47;-0.60;99.90
9849;DHT22;4963;51.444;6.528;2022-12-10T05:39:14;-0.60;99.90
9849;DHT22;4963;51.444;6.528;2022-12-10T05:41:42;-0.60;99.90
9849;DHT22;4963;51.444;6.528;2022-12-10T05:44:12;-0.50;99.90
9849;DHT22;4963;51.444;6.528;2022-12-10T05:46:39;-0.50;99.90
9849;DHT22;4963;51.444;6.528;2022-12-10T05:49:07;-0.50;99.90
9849;DHT22;4963;51.444;6.528;2022-12-10T05:51:36;-0.40;99.90
9849;DHT22;4963;51.444;6.528;2022-12-10T05:54:03;-0.50;99.90
9849;DHT22;4963;51.444;6.528;2022-12-10T05:56:30;-0.50;99.90
9849;DHT22;4963;51.444;6.528;2022-12-10T05:58:59;-0.50;99.90
9849;DHT22;4963;51.444;6.528;2022-12-10T06:01:29;-0.50;99.90
9849;DHT22;4963;51.444;6.528;2022-12-10T06:03:57;-0.50;99.90
9849;DHT22;4963;51.444;6.528;2022-12-10T06:06:27;-0.50;99.90
9849;DHT22;4963;51.444;6.528;2022-12-10T06:08:54;-0.50;99.90
9849;DHT22;4963;51.444;6.528;2022-12-10T06:11:22;-0.40;99.90
9849;DHT22;4963;51.444;6.528;2022-12-10T06:13:49;-0.40;99.90
9849;DHT22;4963;51.444;6.528;2022-12-10T06:16:16;-0.40;99.90
9849;DHT22;4963;51.444;6.528;2022-12-10T06:18:44;-0.40;99.90
9849;DHT22;4963;51.444;6.528;2022-12-10T06:21:13;-0.30;99.90
9849;DHT22;4963;51.444;6.528;2022-12-10T06:23:40;-0.30;99.90
9849;DHT22;4963;51.444;6.528;2022-12-10T06:26:11;-0.30;99.90
9849;DHT22;4963;51.444;6.528;2022-12-10T06:28:38;-0.20;99.90
9849;DHT22;4963;51.444;6.528;2022-12-10T06:31:05;-0.20;99.90
9849;DHT22;4963;51.444;6.528;2022-12-10T06:33:32;-0.20;99.90
9849;DHT22;4963;51.444;6.528;2022-12-10T06:36:03;-0.10;99.90
9849;DHT22;4963;51.444;6.528;2022-12-10T06:38:30;0.00;99.90
9849;DHT22;4963;51.444;6.528;2022-12-10T06:40:57;0.00;99.90
9849;DHT22;4963;51.444;6.528;2022-12-10T06:43:24;0.00;99.90
9849;DHT22;4963;51.444;6.528;2022-12-10T06:45:50;0.10;99.90
9849;DHT22;4963;51.444;6.528;2022-12-10T06:48:17;0.10;99.90
9849;DHT22;4963;51.444;6.528;2022-12-10T06:50:44;0.20;99.90
9849;DHT22;4963;51.444;6.528;2022-12-10T06:53:12;0.20;99.90
9849;DHT22;4963;51.444;6.528;2022-12-10T06:55:39;0.10;99.90
9849;DHT22;4963;51.444;6.528;2022-12-10T06:58:06;0.10;99.90
9849;DHT22;4963;51.444;6.528;2022-12-10T07:00:32;0.10;99.90
9849;DHT22;4963;51.444;6.528;2022-12-10T07:02:59;0.00;99.90
9849;DHT22;4963;51.444;6.528;2022-12-10T07:05:26;0.00;99.90
9849;DHT22;4963;51.444;6.528;2022-12-10T07:07:53;0.00;99.90
9849;DHT22;4963;51.444;6.528;2022-12-10T07:10:22;0.00;99.90
9849;DHT22;4963;51.444;6.528;2022-12-10T07:12:49;0.10;99.90
9849;DHT22;4963;51.444;6.528;2022-12-10T07:15:16;0.10;99.90
9849;DHT22;4963;51.444;6.528;2022-12-10T07:17:43;0.10;99.90
9849;DHT22;4963;51.444;6.528;2022-12-10T07:20:10;0.10;99.90
9849;DHT22;4963;51.444;6.528;2022-12-10T07:22:38;0.10;99.90
9849;DHT22;4963;51.444;6.528;2022-12-10T07:25:05;0.20;99.90
9849;DHT22;4963;51.444;6.528;2022-12-10T07:27:34;0.10;99.90
9849;DHT22;4963;51.444;6.528;2022-12-10T07:30:00;0.00;99.90
9849;DHT22;4963;51.444;6.528;2022-12-10T07:32:27;0.00;99.90
9849;DHT22;4963;51.444;6.528;2022-12-10T07:34:54;0.00;99.90
9849;DHT22;4963;51.444;6.528;2022-12-10T07:37:21;0.00;99.90
9849;DHT22;4963;51.444;6.528;2022-12-10T07:39:48;0.00;99.90
9849;DHT22;4963;51.444;6.528;2022-12-10T07:42:15;-0.10;99.90
9849;DHT22;4963;51.444;6.528;2022-12-10T07:44:43;-0.10;99.90
9849;DHT22;4963;51.444;6.528;2022-12-10T07:47:09;0.00;99.90
9849;DHT22;4963;51.444;6.528;2022-12-10T07:49:36;0.00;99.90
9849;DHT22;4963;51.444;6.528;2022-12-10T07:52:03;0.00;99.90
9849;DHT22;4963;51.444;6.528;2022-12-10T07:54:30;0.00;99.90
9849;DHT22;4963;51.444;6.528;2022-12-10T07:56:57;0.10;99.90
9849;DHT22;4963;51.444;6.528;2022-12-10T07:59:24;0.00;99.90
9849;DHT22;4963;51.444;6.528;2022-12-10T08:01:52;0.00;99.90
9849;DHT22;4963;51.444;6.528;2022-12-10T08:04:18;0.00;99.90
9849;DHT22;4963;51.444;6.528;2022-12-10T08:06:45;0.00;99.90
9849;DHT22;4963;51.444;6.528;2022-12-10T08:09:13;0.00;99.90
9849;DHT22;4963;51.444;6.528;2022-12-10T08:11:40;-0.10;99.90
9849;DHT22;4963;51.444;6.528;2022-12-10T08:14:07;-0.10;99.90
9849;DHT22;4963;51.444;6.528;2022-12-10T08:16:33;-0.10;99.90
9849;DHT22;4963;51.444;6.528;2022-12-10T08:19:02;0.00;99.90
9849;DHT22;4963;51.444;6.528;2022-12-10T08:21:30;0.00;99.90
9849;DHT22;4963;51.444;6.528;2022-12-10T08:23:57;0.10;99.90
9849;DHT22;4963;51.444;6.528;2022-12-10T08:26:27;0.10;99.90
9849;DHT22;4963;51.444;6.528;2022-12-10T08:28:54;0.10;99.90
9849;DHT22;4963;51.444;6.528;2022-12-10T08:31:23;0.00;99.90
9849;DHT22;4963;51.444;6.528;2022-12-10T08:33:51;0.00;99.90
9849;DHT22;4963;51.444;6.528;2022-12-10T08:36:19;0.00;99.90
9849;DHT22;4963;51.444;6.528;2022-12-10T08:38:46;0.00;99.90
9849;DHT22;4963;51.444;6.528;2022-12-10T08:41:15;0.10;99.90
9849;DHT22;4963;51.444;6.528;2022-12-10T08:43:42;0.10;99.90
9849;DHT22;4963;51.444;6.528;2022-12-10T08:46:10;0.10;99.90
9849;DHT22;4963;51.444;6.528;2022-12-10T08:48:37;0.10;99.90
9849;DHT22;4963;51.444;6.528;2022-12-10T08:51:05;0.20;99.90
9849;DHT22;4963;51.444;6.528;2022-12-10T08:53:34;0.10;99.90
9849;DHT22;4963;51.444;6.528;2022-12-10T08:56:01;0.20;99.90
9849;DHT22;4963;51.444;6.528;2022-12-10T08:58:28;0.20;99.90
9849;DHT22;4963;51.444;6.528;2022-12-10T09:00:55;0.10;99.90
9849;DHT22;4963;51.444;6.528;2022-12-10T09:03:21;0.00;99.90
9849;DHT22;4963;51.444;6.528;2022-12-10T09:05:49;0.00;99.90
9849;DHT22;4963;51.444;6.528;2022-12-10T09:08:15;0.10;99.90
9849;DHT22;4963;51.444;6.528;2022-12-10T09:10:44;0.00;99.90
9849;DHT22;4963;51.444;6.528;2022-12-10T09:13:11;0.10;99.90
9849;DHT22;4963;51.444;6.528;2022-12-10T09:15:38;0.10;99.90
9849;DHT22;4963;51.444;6.528;2022-12-10T09:18:04;0.10;99.90
9849;DHT22;4963;51.444;6.528;2022-12-10T09:20:31;0.10;99.90
9849;DHT22;4963;51.444;6.528;2022-12-10T09:22:58;0.10;99.90
9849;DHT22;4963;51.444;6.528;2022-12-10T09:25:25;0.10;99.90
9849;DHT22;4963;51.444;6.528;2022-12-10T09:27:53;0.10;99.90
9849;DHT22;4963;51.444;6.528;2022-12-10T09:30:20;0.10;99.90
9849;DHT22;4963;51.444;6.528;2022-12-10T09:32:47;0.10;99.90
9849;DHT22;4963;51.444;6.528;2022-12-10T09:35:14;0.10;99.90
9849;DHT22;4963;51.444;6.528;2022-12-10T09:37:41;0.10;99.90
9849;DHT22;4963;51.444;6.528;2022-12-10T09:40:10;0.10;99.90
9849;DHT22;4963;51.444;6.528;2022-12-10T09:42:47;0.00;99.90
9849;DHT22;4963;51.444;6.528;2022-12-10T09:45:23;0.00;99.90
9849;DHT22;4963;51.444;6.528;2022-12-10T09:47:57;0.00;99.90
9849;DHT22;4963;51.444;6.528;2022-12-10T09:50:29;0.10;99.90
9849;DHT22;4963;51.444;6.528;2022-12-10T09:52:58;0.20;99.90
9849;DHT22;4963;51.444;6.528;2022-12-10T09:55:30;0.20;99.90
9849;DHT22;4963;51.444;6.528;2022-12-10T09:57:58;0.10;99.90
9849;DHT22;4963;51.444;6.528;2022-12-10T10:00:33;0.10;99.90
9849;DHT22;4963;51.444;6.528;2022-12-10T10:03:01;0.10;99.90
9849;DHT22;4963;51.444;6.528;2022-12-10T10:05:30;0.20;99.90
9849;DHT22;4963;51.444;6.528;2022-12-10T10:08:01;0.20;99.90
9849;DHT22;4963;51.444;6.528;2022-12-10T10:10:30;0.30;99.90
9849;DHT22;4963;51.444;6.528;2022-12-10T10:13:01;0.40;99.90
9849;DHT22;4963;51.444;6.528;2022-12-10T10:15:41;0.40;99.90
9849;DHT22;4963;51.444;6.528;2022-12-10T10:18:14;0.40;99.90
9849;DHT22;4963;51.444;6.528;2022-12-10T10:20:44;0.40;99.90
9849;DHT22;4963;51.444;6.528;2022-12-10T10:23:14;0.50;99.90
9849;DHT22;4963;51.444;6.528;2022-12-10T10:25:42;0.60;99.90
9849;DHT22;4963;51.444;6.528;2022-12-10T10:28:11;0.60;99.90
9849;DHT22;4963;51.444;6.528;2022-12-10T10:30:42;0.60;99.90
9849;DHT22;4963;51.444;6.528;2022-12-10T10:33:11;0.60;99.90
9849;DHT22;4963;51.444;6.528;2022-12-10T10:35:44;0.60;99.90
9849;DHT22;4963;51.444;6.528;2022-12-10T10:38:17;0.60;99.90
9849;DHT22;4963;51.444;6.528;2022-12-10T10:40:46;0.60;99.90
9849;DHT22;4963;51.444;6.528;2022-12-10T10:43:20;0.50;99.90
9849;DHT22;4963;51.444;6.528;2022-12-10T10:45:51;0.60;99.90
9849;DHT22;4963;51.444;6.528;2022-12-10T10:48:20;0.60;99.90
9849;DHT22;4963;51.444;6.528;2022-12-10T10:50:49;0.60;99.90
9849;DHT22;4963;51.444;6.528;2022-12-10T10:53:25;0.70;99.90
9849;DHT22;4963;51.444;6.528;2022-12-10T10:55:54;0.60;99.90
9849;DHT22;4963;51.444;6.528;2022-12-10T10:58:23;0.70;99.90
9849;DHT22;4963;51.444;6.528;2022-12-10T11:01:00;0.70;99.90
9849;DHT22;4963;51.444;6.528;2022-12-10T11:03:29;0.80;99.90
9849;DHT22;4963;51.444;6.528;2022-12-10T11:05:57;0.70;99.90
9849;DHT22;4963;51.444;6.528;2022-12-10T11:08:27;0.60;99.90
9849;DHT22;4963;51.444;6.528;2022-12-10T11:10:59;0.60;99.90
9849;DHT22;4963;51.444;6.528;2022-12-10T11:13:29;0.60;99.90
9849;DHT22;4963;51.444;6.528;2022-12-10T11:16:00;0.70;99.90
9849;DHT22;4963;51.444;6.528;2022-12-10T11:18:32;0.70;99.90
9849;DHT22;4963;51.444;6.528;2022-12-10T11:21:05;0.70;99.90
9849;DHT22;4963;51.444;6.528;2022-12-10T11:23:37;0.70;99.90
9849;DHT22;4963;51.444;6.528;2022-12-10T11:26:16;0.70;99.90
9849;DHT22;4963;51.444;6.528;2022-12-10T11:28:57;0.80;99.90
9849;DHT22;4963;51.444;6.528;2022-12-10T11:31:39;0.90;99.90
9849;DHT22;4963;51.444;6.528;2022-12-10T11:34:15;0.80;99.90
9849;DHT22;4963;51.444;6.528;2022-12-10T11:36:51;0.80;99.90
9849;DHT22;4963;51.444;6.528;2022-12-10T11:39:37;0.80;99.90
9849;DHT22;4963;51.444;6.528;2022-12-10T11:42:16;0.80;99.90
9849;DHT22;4963;51.444;6.528;2022-12-10T11:44:49;0.70;99.90
9849;DHT22;4963;51.444;6.528;2022-12-10T11:47:35;0.70;99.90
9849;DHT22;4963;51.444;6.528;2022-12-10T11:50:15;0.80;99.90
9849;DHT22;4963;51.444;6.528;2022-12-10T11:53:02;0.90;99.90
9849;DHT22;4963;51.444;6.528;2022-12-10T11:55:38;1.00;99.90
9849;DHT22;4963;51.444;6.528;2022-12-10T11:58:23;1.10;99.90
9849;DHT22;4963;51.444;6.528;2022-12-10T12:01:00;1.10;99.90
9849;DHT22;4963;51.444;6.528;2022-12-10T12:03:43;1.20;99.90
9849;DHT22;4963;51.444;6.528;2022-12-10T12:06:47;1.10;99.90
9849;DHT22;4963;51.444;6.528;2022-12-10T12:09:25;1.00;99.90
9849;DHT22;4963;51.444;6.528;2022-12-10T12:12:08;0.90;99.90
9849;DHT22;4963;51.444;6.528;2022-12-10T12:14:42;1.00;99.90
9849;DHT22;4963;51.444;6.528;2022-12-10T12:17:13;0.90;99.90
9849;DHT22;4963;51.444;6.528;2022-12-10T12:19:47;1.00;99.90
9849;DHT22;4963;51.444;6.528;2022-12-10T12:22:23;0.90;99.90
9849;DHT22;4963;51.444;6.528;2022-12-10T12:24:53;0.90;99.90
9849;DHT22;4963;51.444;6.528;2022-12-10T12:27:26;1.00;99.90
9849;DHT22;4963;51.444;6.528;2022-12-10T12:30:04;1.00;99.90
9849;DHT22;4963;51.444;6.528;2022-12-10T12:32:46;1.10;99.90
9849;DHT22;4963;51.444;6.528;2022-12-10T12:35:20;1.20;99.90
9849;DHT22;4963;51.444;6.528;2022-12-10T12:37:55;1.20;99.90
9849;DHT22;4963;51.444;6.528;2022-12-10T12:40:28;1.20;99.90
9849;DHT22;4963;51.444;6.528;2022-12-10T12:42:59;1.10;99.90
9849;DHT22;4963;51.444;6.528;2022-12-10T12:45:33;1.10;99.90
9849;DHT22;4963;51.444;6.528;2022-12-10T12:48:09;1.10;99.90
9849;DHT22;4963;51.444;6.528;2022-12-10T12:50:43;1.20;99.90
9849;DHT22;4963;51.444;6.528;2022-12-10T12:53:12;1.20;99.90
9849;DHT22;4963;51.444;6.528;2022-12-10T12:55:45;1.10;99.90
9849;DHT22;4963;51.444;6.528;2022-12-10T12:58:22;1.20;99.90
9849;DHT22;4963;51.444;6.528;2022-12-10T13:00:57;1.30;99.90
9849;DHT22;4963;51.444;6.528;2022-12-10T13:03:32;1.30;99.90
9849;DHT22;4963;51.444;6.528;2022-12-10T13:06:15;1.20;99.90
9849;DHT22;4963;51.444;6.528;2022-12-10T13:08:45;1.10;99.90
9849;DHT22;4963;51.444;6.528;2022-12-10T13:11:18;1.20;99.90
9849;DHT22;4963;51.444;6.528;2022-12-10T13:14:04;1.30;99.90
9849;DHT22;4963;51.444;6.528;2022-12-10T13:16:48;1.20;99.90
9849;DHT22;4963;51.444;6.528;2022-12-10T13:19:27;1.30;99.90
9849;DHT22;4963;51.444;6.528;2022-12-10T13:22:08;1.20;99.90
9849;DHT22;4963;51.444;6.528;2022-12-10T13:27:39;1.30;99.90
9849;DHT22;4963;51.444;6.528;2022-12-10T13:30:30;1.20;99.90
9849;DHT22;4963;51.444;6.528;2022-12-10T13:33:09;1.20;99.90
9849;DHT22;4963;51.444;6.528;2022-12-10T13:35:44;1.30;99.90
9849;DHT22;4963;51.444;6.528;2022-12-10T13:38:21;1.20;99.90
9849;DHT22;4963;51.444;6.528;2022-12-10T13:41:01;1.20;99.90
9849;DHT22;4963;51.444;6.528;2022-12-10T13:43:52;1.10;99.90
9849;DHT22;4963;51.444;6.528;2022-12-10T13:47:04;1.20;99.90
9849;DHT22;4963;51.444;6.528;2022-12-10T13:49:36;1.20;99.90
9849;DHT22;4963;51.444;6.528;2022-12-10T13:52:16;1.20;99.90
9849;DHT22;4963;51.444;6.528;2022-12-10T13:55:15;1.20;99.90
9849;DHT22;4963;51.444;6.528;2022-12-10T13:57:56;1.10;99.90
9849;DHT22;4963;51.444;6.528;2022-12-10T14:00:33;1.10;99.90
9849;DHT22;4963;51.444;6.528;2022-12-10T14:03:12;1.20;99.90
9849;DHT22;4963;51.444;6.528;2022-12-10T14:06:12;1.20;99.90
9849;DHT22;4963;51.444;6.528;2022-12-10T14:08:41;1.20;99.90
9849;DHT22;4963;51.444;6.528;2022-12-10T14:11:18;1.20;99.90
9849;DHT22;4963;51.444;6.528;2022-12-10T14:13:51;1.20;99.90
9849;DHT22;4963;51.444;6.528;2022-12-10T14:16:21;1.20;99.90
9849;DHT22;4963;51.444;6.528;2022-12-10T14:18:52;1.30;99.90
9849;DHT22;4963;51.444;6.528;2022-12-10T14:21:19;1.40;99.90
9849;DHT22;4963;51.444;6.528;2022-12-10T14:23:48;1.40;99.90
9849;DHT22;4963;51.444;6.528;2022-12-10T14:26:19;1.40;99.90
9849;DHT22;4963;51.444;6.528;2022-12-10T14:28:47;1.50;99.90
9849;DHT22;4963;51.444;6.528;2022-12-10T14:31:18;1.40;99.90
9849;DHT22;4963;51.444;6.528;2022-12-10T14:33:48;1.30;99.90
9849;DHT22;4963;51.444;6.528;2022-12-10T14:36:21;1.10;99.90
9849;DHT22;4963;51.444;6.528;2022-12-10T14:38:49;1.10;99.90
9849;DHT22;4963;51.444;6.528;2022-12-10T14:41:20;1.20;99.90
9849;DHT22;4963;51.444;6.528;2022-12-10T14:43:49;1.20;99.90
9849;DHT22;4963;51.444;6.528;2022-12-10T14:46:18;1.30;99.90
9849;DHT22;4963;51.444;6.528;2022-12-10T14:48:49;1.40;99.90
9849;DHT22;4963;51.444;6.528;2022-12-10T14:51:20;1.40;99.90
9849;DHT22;4963;51.444;6.528;2022-12-10T14:53:48;1.50;99.90
9849;DHT22;4963;51.444;6.528;2022-12-10T14:56:20;1.50;99.90
9849;DHT22;4963;51.444;6.528;2022-12-10T14:58:54;1.50;99.90
9849;DHT22;4963;51.444;6.528;2022-12-10T15:01:27;1.40;99.90
9849;DHT22;4963;51.444;6.528;2022-12-10T15:03:56;1.40;99.90
9849;DHT22;4963;51.444;6.528;2022-12-10T15:06:25;1.30;99.90
9849;DHT22;4963;51.444;6.528;2022-12-10T15:08:55;1.30;99.90
9849;DHT22;4963;51.444;6.528;2022-12-10T15:11:24;1.30;99.90
9849;DHT22;4963;51.444;6.528;2022-12-10T15:13:54;1.30;99.90
9849;DHT22;4963;51.444;6.528;2022-12-10T15:16:29;1.20;99.90
9849;DHT22;4963;51.444;6.528;2022-12-10T15:19:06;1.10;99.90
9849;DHT22;4963;51.444;6.528;2022-12-10T15:21:41;1.10;99.90
9849;DHT22;4963;51.444;6.528;2022-12-10T15:24:13;1.10;99.90
9849;DHT22;4963;51.444;6.528;2022-12-10T15:26:44;1.10;99.90
9849;DHT22;4963;51.444;6.528;2022-12-10T15:29:32;1.10;99.90
9849;DHT22;4963;51.444;6.528;2022-12-10T15:32:04;1.10;99.90
9849;DHT22;4963;51.444;6.528;2022-12-10T15:34:36;1.10;99.90
9849;DHT22;4963;51.444;6.528;2022-12-10T15:37:04;1.10;99.90
9849;DHT22;4963;51.444;6.528;2022-12-10T15:39:44;1.10;99.90
9849;DHT22;4963;51.444;6.528;2022-12-10T15:42:31;1.20;99.90
9849;DHT22;4963;51.444;6.528;2022-12-10T15:45:08;1.10;99.90
9849;DHT22;4963;51.444;6.528;2022-12-10T15:47:37;1.10;99.90
9849;DHT22;4963;51.444;6.528;2022-12-10T15:50:05;1.10;99.90
9849;DHT22;4963;51.444;6.528;2022-12-10T15:52:32;1.10;99.90
9849;DHT22;4963;51.444;6.528;2022-12-10T15:54:59;1.00;99.90
9849;DHT22;4963;51.444;6.528;2022-12-10T15:57:29;1.10;99.90
9849;DHT22;4963;51.444;6.528;2022-12-10T15:59:58;1.10;99.90
9849;DHT22;4963;51.444;6.528;2022-12-10T16:02:34;1.10;99.90
9849;DHT22;4963;51.444;6.528;2022-12-10T16:05:03;1.10;99.90
9849;DHT22;4963;51.444;6.528;2022-12-10T16:07:36;1.10;99.90
9849;DHT22;4963;51.444;6.528;2022-12-10T16:10:04;1.00;99.90
9849;DHT22;4963;51.444;6.528;2022-12-10T16:12:34;1.00;99.90
9849;DHT22;4963;51.444;6.528;2022-12-10T16:15:01;1.00;99.90
9849;DHT22;4963;51.444;6.528;2022-12-10T16:17:29;1.00;99.90
9849;DHT22;4963;51.444;6.528;2022-12-10T16:19:58;1.00;99.90
9849;DHT22;4963;51.444;6.528;2022-12-10T16:22:25;1.00;99.90
9849;DHT22;4963;51.444;6.528;2022-12-10T16:24:52;1.10;99.90
9849;DHT22;4963;51.444;6.528;2022-12-10T16:27:18;1.10;99.90
9849;DHT22;4963;51.444;6.528;2022-12-10T16:29:47;1.20;99.90
9849;DHT22;4963;51.444;6.528;2022-12-10T16:32:13;1.20;99.90
9849;DHT22;4963;51.444;6.528;2022-12-10T16:34:40;1.20;99.90
9849;DHT22;4963;51.444;6.528;2022-12-10T16:37:10;1.30;99.90
9849;DHT22;4963;51.444;6.528;2022-12-10T16:39:37;1.30;99.90